createdAt,value
2018-09-11T00:01:27.411Z,13.70
2018-09-11T00:03:57.159Z,13.80
2018-09-11T00:06:26.890Z,13.80
2018-09-11T00:08:56.634Z,13.70
2018-09-11T00:11:26.788Z,13.60
2018-09-11T00:13:56.578Z,13.50
2018-09-11T00:16:26.302Z,13.40
2018-09-11T00:18:56.028Z,13.40
2018-09-11T00:21:25.705Z,13.40
2018-09-11T00:23:55.523Z,13.30
2018-09-11T00:26:25.310Z,13.30
2018-09-11T00:28:55.134Z,13.20
2018-09-11T00:31:25.893Z,13.20
2018-09-11T00:33:55.726Z,13.30
2018-09-11T00:36:25.521Z,13.30
2018-09-11T00:38:55.331Z,13.40
2018-09-11T00:41:25.051Z,13.40
2018-09-11T00:43:54.868Z,13.40
2018-09-11T00:46:24.572Z,13.40
2018-09-11T00:48:54.438Z,13.40
2018-09-11T00:51:24.052Z,13.40
2018-09-11T00:53:53.846Z,13.40
2018-09-11T00:56:23.989Z,13.40
2018-09-11T00:58:58.374Z,13.40
2018-09-11T01:01:28.147Z,13.40
2018-09-11T01:03:57.850Z,13.30
2018-09-11T01:06:27.499Z,13.20
2018-09-11T01:08:57.356Z,13.20
2018-09-11T01:11:27.058Z,13.10
2018-09-11T01:13:56.802Z,12.90
2018-09-11T01:16:26.518Z,12.80
2018-09-11T01:18:56.193Z,12.80
2018-09-11T01:21:25.926Z,12.80
2018-09-11T01:23:55.659Z,12.80
2018-09-11T01:26:25.334Z,12.90
2018-09-11T01:28:55.038Z,13.00
2018-09-11T01:31:24.802Z,13.00
2018-09-11T01:33:54.859Z,13.10
2018-09-11T01:36:25.014Z,13.10
2018-09-11T01:38:54.686Z,13.10
2018-09-11T01:41:24.465Z,13.00
2018-09-11T01:43:54.518Z,13.00
2018-09-11T01:49:24.781Z,13.10
2018-09-11T01:51:54.447Z,13.10
2018-09-11T01:54:24.034Z,13.10
2018-09-11T01:56:53.754Z,13.00
2018-09-11T01:59:23.494Z,12.90
2018-09-11T02:01:53.184Z,12.90
2018-09-11T02:04:23.619Z,12.80
2018-09-11T02:06:53.323Z,12.70
2018-09-11T02:09:23.734Z,12.60
2018-09-11T02:11:53.361Z,12.70
2018-09-11T02:14:23.041Z,12.80
2018-09-11T02:16:52.802Z,12.80
2018-09-11T02:19:22.553Z,12.60
2018-09-11T02:21:53.362Z,12.50
2018-09-11T02:24:23.222Z,12.40
2018-09-11T02:26:56.542Z,12.40
2018-09-11T02:29:26.224Z,12.40
2018-09-11T02:31:55.930Z,12.50
2018-09-11T02:34:25.786Z,12.60
2018-09-11T02:37:19.555Z,12.70
2018-09-11T02:39:49.212Z,12.60
2018-09-11T02:42:18.900Z,12.60
2018-09-11T02:44:48.906Z,12.70
2018-09-11T02:47:18.662Z,12.70
2018-09-11T02:49:48.318Z,12.70
2018-09-11T02:52:18.041Z,12.70
2018-09-11T02:57:53.812Z,12.70
2018-09-11T03:00:23.568Z,12.70
2018-09-11T03:02:53.363Z,12.60
2018-09-11T03:05:23.167Z,12.60
2018-09-11T03:07:53.258Z,12.60
2018-09-11T03:10:23.271Z,12.60
2018-09-11T03:12:53.274Z,12.50
2018-09-11T03:15:23.078Z,12.60
2018-09-11T03:18:10.346Z,12.50
2018-09-11T03:20:40.010Z,12.50
2018-09-11T03:23:09.719Z,12.50
2018-09-11T03:25:39.400Z,12.50
2018-09-11T03:28:09.115Z,12.40
2018-09-11T03:30:38.807Z,12.40
2018-09-11T03:33:08.460Z,12.30
2018-09-11T03:35:38.111Z,12.30
2018-09-11T03:38:07.939Z,12.20
2018-09-11T03:40:37.651Z,12.10
2018-09-11T03:43:07.395Z,12.10
2018-09-11T03:45:37.196Z,12.00
2018-09-11T03:48:06.933Z,12.00
2018-09-11T03:50:36.627Z,12.00
2018-09-11T03:53:06.437Z,12.00
2018-09-11T03:55:36.315Z,12.10
2018-09-11T03:58:18.510Z,12.10
2018-09-11T04:00:48.300Z,12.00
2018-09-11T04:03:17.944Z,12.00
2018-09-11T04:05:47.671Z,12.00
2018-09-11T04:08:17.393Z,12.00
2018-09-11T04:10:47.082Z,12.00
2018-09-11T04:13:16.839Z,11.90
2018-09-11T04:15:46.438Z,11.90
2018-09-11T04:18:16.210Z,11.80
2018-09-11T04:20:45.838Z,11.90
2018-09-11T04:23:15.646Z,11.90
2018-09-11T04:25:45.498Z,11.90
2018-09-11T04:28:15.107Z,11.90
2018-09-11T04:30:48.302Z,11.90
2018-09-11T04:33:18.074Z,11.90
2018-09-11T04:35:47.824Z,11.90
2018-09-11T04:38:17.522Z,11.90
2018-09-11T04:40:47.236Z,12.00
2018-09-11T04:43:16.903Z,12.00
2018-09-11T04:45:46.592Z,12.00
2018-09-11T04:48:16.242Z,11.90
2018-09-11T04:50:45.927Z,11.90
2018-09-11T04:53:15.674Z,11.90
2018-09-11T04:55:45.336Z,11.90
2018-09-11T04:58:15.135Z,11.90
2018-09-11T05:00:44.786Z,11.90
2018-09-11T05:03:14.593Z,11.90
2018-09-11T05:05:44.206Z,11.90
2018-09-11T05:08:13.899Z,11.90
2018-09-11T05:10:54.235Z,11.90
2018-09-11T05:13:24.269Z,11.90
2018-09-11T05:15:54.031Z,11.90
2018-09-11T05:18:23.847Z,11.80
2018-09-11T05:20:53.554Z,11.70
2018-09-11T05:23:23.270Z,11.70
2018-09-11T05:25:53.427Z,11.70
2018-09-11T05:28:23.659Z,11.70
2018-09-11T05:30:53.393Z,11.70
2018-09-11T05:33:23.394Z,11.80
2018-09-11T05:35:53.218Z,11.90
2018-09-11T05:38:23.091Z,12.00
2018-09-11T05:40:52.812Z,12.10
2018-09-11T05:43:22.665Z,12.20
2018-09-11T05:45:52.359Z,12.30
2018-09-11T05:48:22.215Z,12.40
2018-09-11T05:50:52.064Z,12.50
2018-09-11T05:53:21.824Z,12.60
2018-09-11T05:55:51.589Z,12.80
2018-09-11T05:58:21.446Z,12.90
2018-09-11T06:00:51.069Z,13.00
2018-09-11T06:03:20.800Z,13.20
2018-09-11T06:05:50.811Z,13.20
2018-09-11T06:08:20.551Z,13.40
2018-09-11T06:10:50.247Z,13.50
2018-09-11T06:13:19.879Z,13.70
2018-09-11T06:15:49.570Z,13.80
2018-09-11T06:18:19.179Z,14.00
2018-09-11T06:20:48.866Z,14.20
2018-09-11T06:23:18.535Z,14.30
2018-09-11T06:25:48.309Z,14.50
2018-09-11T06:28:17.996Z,14.80
2018-09-11T06:30:57.592Z,14.80
2018-09-11T06:33:28.240Z,15.00
2018-09-11T06:35:57.910Z,15.30
2018-09-11T06:41:52.906Z,16.40
2018-09-11T06:44:22.548Z,17.70
2018-09-11T06:46:52.254Z,18.80
2018-09-11T06:49:21.915Z,20.00
2018-09-11T06:51:51.631Z,20.50
2018-09-11T06:54:21.283Z,21.00
2018-09-11T06:56:51.092Z,21.80
2018-09-11T06:59:20.802Z,22.20
2018-09-11T07:01:50.795Z,23.20
2018-09-11T07:04:20.459Z,22.80
2018-09-11T07:06:50.354Z,23.50
2018-09-11T07:09:20.096Z,24.40
2018-09-11T07:11:49.799Z,25.10
2018-09-11T07:14:19.539Z,25.40
2018-09-11T07:16:49.226Z,25.70
2018-09-11T07:19:18.894Z,26.20
2018-09-11T07:21:48.636Z,26.80
2018-09-11T07:24:18.287Z,27.30
2018-09-11T07:26:47.946Z,26.40
2018-09-11T07:29:17.577Z,27.00
2018-09-11T07:31:47.358Z,27.00
2018-09-11T07:34:16.998Z,27.00
2018-09-11T07:36:46.683Z,27.20
2018-09-11T07:39:16.422Z,27.50
2018-09-11T07:41:46.086Z,27.50
2018-09-11T07:44:15.836Z,28.30
2018-09-11T07:46:45.518Z,27.90
2018-09-11T07:49:15.121Z,26.90
2018-09-11T07:51:44.893Z,26.90
2018-09-11T07:54:14.531Z,26.90
2018-09-11T07:56:44.221Z,27.20
2018-09-11T07:59:13.950Z,27.70
2018-09-11T08:01:43.635Z,27.90
2018-09-11T08:04:13.306Z,27.90
2018-09-11T08:06:43.123Z,28.20
2018-09-11T08:09:13.771Z,27.80
2018-09-11T08:11:43.482Z,28.00
2018-09-11T08:14:13.227Z,28.00
2018-09-11T08:16:42.998Z,28.60
2018-09-11T08:19:12.707Z,29.10
2018-09-11T08:21:42.429Z,28.60
2018-09-11T08:24:12.127Z,29.40
2018-09-11T08:26:41.795Z,28.80
2018-09-11T08:29:11.559Z,28.60
2018-09-11T08:31:41.242Z,28.30
2018-09-11T08:34:10.923Z,28.50
2018-09-11T08:36:40.655Z,28.70
2018-09-11T08:39:11.414Z,27.50
2018-09-11T08:41:41.185Z,26.60
2018-09-11T08:44:10.922Z,26.20
2018-09-11T08:46:40.614Z,26.00
2018-09-11T08:49:10.302Z,26.90
2018-09-11T08:51:40.008Z,27.30
2018-09-11T08:54:09.627Z,26.80
2018-09-11T08:56:39.371Z,27.70
2018-09-11T08:59:09.006Z,28.60
2018-09-11T09:01:38.624Z,28.90
2018-09-11T09:04:08.342Z,29.20
2018-09-11T09:06:37.927Z,28.70
2018-09-11T09:09:11.281Z,28.10
2018-09-11T09:11:41.180Z,28.40
2018-09-11T09:14:10.904Z,27.90
2018-09-11T09:16:40.614Z,27.00
2018-09-11T09:19:10.364Z,26.50
2018-09-11T09:21:40.082Z,27.60
2018-09-11T09:24:09.810Z,28.20
2018-09-11T09:26:39.563Z,28.80
2018-09-11T09:29:09.244Z,29.40
2018-09-11T09:31:41.098Z,30.40
2018-09-11T09:34:10.761Z,29.80
2018-09-11T09:36:40.564Z,30.70
2018-09-11T09:39:10.326Z,31.50
2018-09-11T09:41:40.033Z,31.90
2018-09-11T09:44:09.717Z,30.70
2018-09-11T09:46:39.967Z,31.40
2018-09-11T09:49:09.816Z,31.60
2018-09-11T09:51:39.551Z,29.80
2018-09-11T09:54:09.195Z,29.40
2018-09-11T09:56:38.842Z,30.50
2018-09-11T09:59:08.524Z,31.40
2018-09-11T10:01:43.528Z,31.00
2018-09-11T10:04:13.255Z,31.90
2018-09-11T10:06:42.971Z,31.20
2018-09-11T10:09:13.670Z,31.20
2018-09-11T10:11:43.414Z,30.30
2018-09-11T10:14:13.128Z,29.80
2018-09-11T10:16:42.843Z,30.00
2018-09-11T10:19:12.515Z,30.10
2018-09-11T10:21:42.217Z,29.20
2018-09-11T10:24:11.870Z,30.10
2018-09-11T10:26:41.568Z,32.20
2018-09-11T10:29:12.403Z,31.50
2018-09-11T10:31:42.123Z,31.80
2018-09-11T10:34:11.927Z,32.50
2018-09-11T10:36:41.654Z,32.20
2018-09-11T10:39:11.317Z,32.40
2018-09-11T10:41:41.084Z,32.20
2018-09-11T10:44:10.942Z,32.70
2018-09-11T10:46:40.701Z,31.60
2018-09-11T10:49:10.414Z,31.00
2018-09-11T10:51:40.371Z,32.40
2018-09-11T10:54:10.074Z,31.10
2018-09-11T10:56:39.647Z,30.50
2018-09-11T10:59:09.358Z,31.40
2018-09-11T11:01:39.066Z,31.90
2018-09-11T11:04:08.981Z,32.10
2018-09-11T11:06:38.749Z,31.80
2018-09-11T11:09:10.958Z,32.10
2018-09-11T11:12:08.865Z,33.30
2018-09-11T11:14:40.659Z,32.60
2018-09-11T11:17:10.509Z,32.90
2018-09-11T11:19:40.099Z,32.30
2018-09-11T11:22:09.751Z,32.00
2018-09-11T11:24:40.557Z,31.90
2018-09-11T11:27:10.493Z,31.70
2018-09-11T11:29:40.145Z,31.00
2018-09-11T11:35:38.003Z,30.40
2018-09-11T11:38:07.790Z,30.10
2018-09-11T11:40:37.461Z,30.50
2018-09-11T11:43:07.240Z,30.20
2018-09-11T11:45:37.046Z,29.70
2018-09-11T11:48:06.824Z,30.20
2018-09-11T11:50:36.519Z,30.40
2018-09-11T11:53:06.378Z,31.00
2018-09-11T11:55:36.378Z,30.50
2018-09-11T11:58:06.143Z,30.00
2018-09-11T12:00:39.146Z,30.00
2018-09-11T12:03:09.751Z,30.30
2018-09-11T12:05:39.394Z,31.00
2018-09-11T12:08:09.166Z,30.60
2018-09-11T12:10:38.835Z,31.00
2018-09-11T12:13:08.507Z,32.30
2018-09-11T12:15:38.142Z,32.80
2018-09-11T12:18:07.895Z,32.40
2018-09-11T12:20:37.518Z,32.60
2018-09-11T12:23:07.040Z,33.60
2018-09-11T12:25:48.567Z,33.80
2018-09-11T12:28:17.936Z,34.00
2018-09-11T12:30:47.480Z,33.20
2018-09-11T12:33:16.810Z,33.30
2018-09-11T12:35:46.186Z,33.50
2018-09-11T12:38:15.497Z,34.70
2018-09-11T12:40:44.787Z,35.30
2018-09-11T12:43:14.122Z,35.80
2018-09-11T12:45:43.568Z,35.10
2018-09-11T12:51:20.849Z,33.20
2018-09-11T12:53:50.257Z,33.10
2018-09-11T12:56:19.561Z,32.90
2018-09-11T12:58:48.868Z,33.10
2018-09-11T13:01:18.195Z,33.70
2018-09-11T13:03:47.497Z,33.30
2018-09-11T13:06:16.974Z,33.10
2018-09-11T13:08:46.301Z,33.20
2018-09-11T13:11:15.613Z,33.00
2018-09-11T13:13:44.927Z,33.60
2018-09-11T13:16:14.238Z,33.40
2018-09-11T13:18:43.577Z,33.10
2018-09-11T13:21:12.885Z,33.40
2018-09-11T13:23:42.222Z,33.60
2018-09-11T13:26:11.549Z,34.30
2018-09-11T13:28:40.853Z,34.50
2018-09-11T13:31:10.260Z,34.80
2018-09-11T13:33:39.755Z,33.30
2018-09-11T13:36:09.094Z,33.80
2018-09-11T13:38:38.440Z,33.70
2018-09-11T13:41:08.094Z,33.30
2018-09-11T13:43:37.410Z,33.10
2018-09-11T13:46:06.868Z,32.70
2018-09-11T13:48:36.181Z,32.90
2018-09-11T13:51:05.565Z,33.20
2018-09-11T13:53:34.877Z,33.30
2018-09-11T13:56:04.251Z,33.60
2018-09-11T13:58:33.533Z,33.30
2018-09-11T14:01:02.871Z,33.00
2018-09-11T14:03:32.220Z,33.10
2018-09-11T14:06:01.594Z,33.80
2018-09-11T14:08:31.158Z,33.60
2018-09-11T14:11:00.535Z,33.00
2018-09-11T14:13:29.940Z,33.00
2018-09-11T14:15:59.497Z,32.60
2018-09-11T14:18:28.923Z,31.80
2018-09-11T14:20:58.330Z,31.70
2018-09-11T14:23:27.718Z,32.10
2018-09-11T14:25:57.130Z,32.50
2018-09-11T14:28:26.554Z,32.80
2018-09-11T14:30:55.904Z,33.50
2018-09-11T14:33:25.230Z,33.70
2018-09-11T14:35:54.565Z,33.90
2018-09-11T14:38:24.121Z,33.30
2018-09-11T14:40:53.625Z,33.00
2018-09-11T14:43:22.966Z,32.80
2018-09-11T14:45:52.300Z,33.40
2018-09-11T14:48:21.773Z,34.20
2018-09-11T14:50:51.080Z,34.70
2018-09-11T14:53:20.407Z,34.40
2018-09-11T14:55:49.788Z,34.40
2018-09-11T14:58:19.361Z,35.30
2018-09-11T15:00:48.721Z,36.10
2018-09-11T15:03:18.038Z,35.40
2018-09-11T15:05:47.338Z,35.40
2018-09-11T15:08:16.666Z,35.50
2018-09-11T15:10:45.985Z,34.80
2018-09-11T15:13:15.409Z,34.20
2018-09-11T15:15:44.763Z,34.80
2018-09-11T15:18:14.064Z,36.30
2018-09-11T15:20:43.493Z,36.00
2018-09-11T15:23:12.883Z,36.00
2018-09-11T15:25:42.412Z,36.20
2018-09-11T15:28:11.736Z,36.20
2018-09-11T15:30:41.081Z,35.80
2018-09-11T15:33:10.389Z,35.90
2018-09-11T15:35:39.789Z,36.60
2018-09-11T15:38:09.529Z,37.40
2018-09-11T15:40:38.829Z,37.80
2018-09-11T15:43:08.132Z,38.00
2018-09-11T15:45:37.498Z,37.60
2018-09-11T15:48:06.835Z,37.40
2018-09-11T15:50:36.137Z,38.60
2018-09-11T15:53:05.449Z,38.80
2018-09-11T15:55:37.984Z,39.80
2018-09-11T15:58:07.806Z,39.60
2018-09-11T16:00:37.109Z,39.80
2018-09-11T16:03:06.421Z,40.10
2018-09-11T16:05:35.805Z,39.50
2018-09-11T16:08:05.149Z,39.50
2018-09-11T16:10:34.474Z,39.50
2018-09-11T16:13:03.958Z,39.60
2018-09-11T16:15:33.245Z,39.60
2018-09-11T16:18:02.549Z,39.60
2018-09-11T16:20:31.864Z,38.90
2018-09-11T16:23:01.220Z,37.30
2018-09-11T16:25:30.533Z,37.40
2018-09-11T16:27:59.880Z,37.30
2018-09-11T16:30:29.218Z,36.80
2018-09-11T16:32:58.521Z,36.60
2018-09-11T16:35:27.894Z,36.70
2018-09-11T16:37:57.281Z,36.70
2018-09-11T16:40:26.743Z,36.80
2018-09-11T16:43:21.258Z,36.70
2018-09-11T16:45:50.948Z,36.40
2018-09-11T16:48:20.340Z,35.70
2018-09-11T16:50:49.810Z,34.30
2018-09-11T16:53:19.312Z,33.50
2018-09-11T16:55:48.762Z,33.20
2018-09-11T16:58:18.373Z,32.10
2018-09-11T17:00:47.673Z,30.90
2018-09-11T17:03:17.280Z,30.00
2018-09-11T17:05:46.631Z,29.50
2018-09-11T17:08:15.939Z,28.50
2018-09-11T17:10:45.248Z,27.90
2018-09-11T17:13:14.668Z,27.30
2018-09-11T17:15:57.901Z,26.90
2018-09-11T17:18:27.244Z,26.60
2018-09-11T17:20:56.553Z,26.20
2018-09-11T17:23:25.906Z,25.80
2018-09-11T17:25:55.313Z,25.50
2018-09-11T17:28:25.081Z,25.20
2018-09-11T17:31:07.768Z,24.80
2018-09-11T17:33:37.158Z,24.50
2018-09-11T17:36:06.993Z,24.20
2018-09-11T17:38:36.497Z,23.80
2018-09-11T17:41:05.913Z,23.60
2018-09-11T17:43:35.314Z,23.30
2018-09-11T17:46:04.717Z,23.10
2018-09-11T17:48:34.193Z,22.90
2018-09-11T17:51:03.526Z,22.70
2018-09-11T17:53:33.338Z,22.50
2018-09-11T17:56:02.677Z,22.30
2018-09-11T17:58:32.279Z,22.10
2018-09-11T18:01:02.466Z,21.90
2018-09-11T18:03:32.581Z,21.80
2018-09-11T18:06:02.283Z,21.60
2018-09-11T18:08:31.612Z,21.50
2018-09-11T18:11:00.954Z,21.40
2018-09-11T18:13:30.318Z,21.20
2018-09-11T18:15:59.705Z,21.10
2018-09-11T18:18:29.061Z,21.00
2018-09-11T18:20:58.426Z,20.90
2018-09-11T18:23:27.872Z,20.80
2018-09-11T18:25:57.202Z,20.60
2018-09-11T18:28:28.616Z,20.50
2018-09-11T18:30:58.637Z,20.50
2018-09-11T18:33:28.144Z,20.40
2018-09-11T18:35:57.509Z,20.20
2018-09-11T18:38:26.957Z,20.10
2018-09-11T18:40:56.385Z,20.00
2018-09-11T18:43:26.081Z,19.90
2018-09-11T18:45:59.808Z,19.80
2018-09-11T18:48:29.673Z,19.60
2018-09-11T18:50:59.112Z,19.50
2018-09-11T18:53:41.166Z,19.50
2018-09-11T18:56:12.107Z,19.50
2018-09-11T18:58:42.124Z,19.40
2018-09-11T19:01:12.125Z,19.30
2018-09-11T19:03:41.513Z,19.20
2018-09-11T19:06:14.873Z,19.00
2018-09-11T19:08:45.547Z,18.90
2018-09-11T19:11:15.138Z,18.90
2018-09-11T19:13:46.376Z,18.80
2018-09-11T19:16:16.178Z,18.70
2018-09-11T19:18:47.072Z,18.50
2018-09-11T19:21:24.504Z,18.40
2018-09-11T19:23:54.718Z,18.40
2018-09-11T19:26:25.915Z,18.30
2018-09-11T19:28:56.524Z,18.20
2018-09-11T19:31:27.920Z,18.20
2018-09-11T19:33:58.039Z,18.10
2018-09-11T19:36:29.107Z,17.90
2018-09-11T19:38:59.228Z,17.90
2018-09-11T19:41:29.235Z,17.70
2018-09-11T19:44:03.484Z,17.60
2018-09-11T19:46:33.198Z,17.50
2018-09-11T19:49:02.969Z,17.50
2018-09-11T19:51:32.819Z,17.40
2018-09-11T19:54:04.832Z,17.40
2018-09-11T19:56:34.573Z,17.40
2018-09-11T19:59:04.480Z,17.30
2018-09-11T20:01:34.483Z,17.30
2018-09-11T20:04:04.212Z,17.30
2018-09-11T20:06:34.136Z,17.20
2018-09-11T20:09:04.387Z,17.20
2018-09-11T20:11:34.569Z,17.10
2018-09-11T20:14:04.968Z,17.00
2018-09-11T20:16:38.342Z,17.10
2018-09-11T20:19:08.334Z,17.00
2018-09-11T20:21:38.154Z,17.00
2018-09-11T20:24:07.834Z,17.00
2018-09-11T20:26:37.530Z,17.00
2018-09-11T20:29:07.352Z,17.00
2018-09-11T20:31:37.119Z,16.90
2018-09-11T20:34:07.206Z,16.90
2018-09-11T20:37:01.370Z,16.80
2018-09-11T20:39:31.081Z,16.80
2018-09-11T20:42:00.954Z,16.70
2018-09-11T20:44:30.676Z,16.60
2018-09-11T20:47:01.420Z,16.60
2018-09-11T20:49:31.182Z,16.60
2018-09-11T20:52:00.813Z,16.60
2018-09-11T20:54:38.903Z,16.60
2018-09-11T20:57:08.598Z,16.60
2018-09-11T20:59:38.332Z,16.60
2018-09-11T21:02:08.219Z,16.50
2018-09-11T21:04:38.008Z,16.50
2018-09-11T21:07:12.022Z,16.40
2018-09-11T21:09:42.107Z,16.40
2018-09-11T21:12:11.761Z,16.40
2018-09-11T21:14:52.826Z,16.40
2018-09-11T21:17:22.805Z,16.40
2018-09-11T21:20:18.479Z,16.30
2018-09-11T21:22:51.612Z,16.20
2018-09-11T21:25:21.391Z,16.20
2018-09-11T21:27:51.063Z,16.20
2018-09-11T21:30:28.141Z,16.10
2018-09-11T21:32:57.867Z,16.10
2018-09-11T21:35:27.618Z,16.00
2018-09-11T21:37:57.532Z,15.90
2018-09-11T21:40:27.118Z,15.80
2018-09-11T21:42:56.870Z,15.70
2018-09-11T21:45:26.621Z,15.70
2018-09-11T21:47:56.398Z,15.70
2018-09-11T21:50:26.092Z,15.70
2018-09-11T21:52:55.850Z,15.60
2018-09-11T21:55:25.754Z,15.60
2018-09-11T21:57:57.523Z,15.60
2018-09-11T22:00:27.271Z,15.50
2018-09-11T22:02:57.914Z,15.50
2018-09-11T22:05:27.687Z,15.40
2018-09-11T22:07:57.416Z,15.30
2018-09-11T22:10:27.255Z,15.30
2018-09-11T22:12:56.956Z,15.30
2018-09-11T22:15:40.423Z,15.20
2018-09-11T22:18:10.009Z,15.20
2018-09-11T22:20:39.747Z,15.30
2018-09-11T22:23:09.454Z,15.20
2018-09-11T22:25:39.170Z,15.20
2018-09-11T22:28:08.890Z,15.20
2018-09-11T22:30:42.907Z,15.10
2018-09-11T22:33:12.703Z,15.00
2018-09-11T22:35:42.838Z,14.90
2018-09-11T22:38:12.587Z,14.90
2018-09-11T22:40:42.195Z,14.80
2018-09-11T22:43:11.952Z,14.80
2018-09-11T22:45:41.681Z,14.80
2018-09-11T22:48:11.340Z,14.80
2018-09-11T22:50:41.207Z,14.80
2018-09-11T22:53:10.912Z,14.90
2018-09-11T22:55:40.614Z,14.80
2018-09-11T22:58:10.318Z,14.80
2018-09-11T23:00:40.039Z,14.80
2018-09-11T23:03:09.838Z,14.70
2018-09-11T23:05:39.443Z,14.70
2018-09-11T23:08:09.155Z,14.70
2018-09-11T23:10:38.889Z,14.70
2018-09-11T23:13:08.535Z,14.60
2018-09-11T23:15:38.205Z,14.60
2018-09-11T23:18:07.834Z,14.50
2018-09-11T23:20:53.980Z,14.50
2018-09-11T23:23:23.719Z,14.40
2018-09-11T23:25:53.398Z,14.20
2018-09-11T23:28:23.176Z,14.20
2018-09-11T23:30:53.055Z,14.10
2018-09-11T23:33:22.747Z,14.00
2018-09-11T23:35:52.635Z,14.00
2018-09-11T23:38:22.339Z,13.90
2018-09-11T23:40:52.232Z,13.90
2018-09-11T23:43:21.894Z,13.90
2018-09-11T23:45:51.700Z,13.90
2018-09-11T23:48:21.401Z,14.00
2018-09-11T23:50:51.139Z,14.00
2018-09-11T23:53:20.895Z,14.00
2018-09-11T23:55:50.699Z,14.00
2018-09-11T23:58:20.352Z,14.10
